Skip Navigation Links Skip Navigation Links

Current Weather

Falcon Fld, Mesa, Ariz.

For information only: do not use for flight planning or navigation.
Latest weather
Observation time Thursday, January 27, 2022 9:54 PM MST
Local time Thursday, January 27, 2022 10:19 PM MST
Flight conditions Visual Meteorological Conditions
Winds
Wind direction Northeast (50°)
Wind speed 6 mph
Wind gusting to 18 mph
Visibility 10 mi.
Sky condition
Ceiling unlimited
Sky clear
Temperature 61°F
Dewpoint 8°F
Altimeter 30.24 in.Hg
Derived measurements
Relative humidity 12%
Density altitude 1207 ft.
Sea-level pressure 30.20 in.Hg
Remarks
Fully automated report.
System requires maintenance.
Automated weather observing station with precipitation discriminator.
Lightning detection system not operating.
METAR KFFZ 280454Z AUTO 05005G16KT 10SM CLR 16/M13 A3024 RMK AO2 SLP228 T01611133 TSNO $

Settings

Location code

InnerDrive.Weather 4.0.6770.0 Release CLR 4.0.30319.42000
Copyright ©2018 Inner Drive Technology. All rights reserved. Portions Copyright ©1986-2018 David Braverman.

Find weather

Site navigation


Skip Navigation Links

Place info

Page info

PayPal - The safer, easier way to pay online!

Return home.

Copyright ©2022 Inner Drive Technology. Purveyors of fine, hand-crafted computer software. Page printed 2022-01-28T05:19:31 UTC.